Record high temperature 35.2°C Record low temperature -28.5°C Record high gust 73.6 km/h Record high average 52.2 km/h Record daily rain 78.0 mm Record low windchill -39.6°C Record high barometer 1045.2 hPa Record low barometer 973.0 hPa
Daily high pressure 1011 hPa Daily low pressure 1006 hPa Daily low windchill 21.0°C Daily high heat index 25.9°C Daily high gust speed 24.1 kmh WNW Daily high average speed 12.9 kmh WSW
Beaconsfield Home Weather Data WMR-968
LAST READING AT TIME: 22:15 DATE: July 23 2014, time of next update: 22:20
Current WeatherNight time/Dry/Cloudy with clear patches Current Temperature 21.0°C (69.8°F) (Heat Index 21.0°C ), Apparent temp 19.7°C
Maximum Temperature (since midnight)25.9°C at: 14:54 Minimum Temperature (since midnight)21.0°C at: 22:10
Average windspeed (ten minute)6.5 kmh (3.5 kts) Wind Direction (ten minute)NW (307°)
Windchill Temperature 21.0°C Maximum Gust (last hour)13.3 kmh (7.2 kts) at: 22:05
Maximum Gust (since midnight)24.1 kmh (13.0 kts) at: 15:35 Maximum 1 minute average (since midnight)12.9 kmh (7.0 kts) at: 15:55
Rainfall (last hour)0.0 mm Rainfall (since midnight)9.6 mm (0.38 in.) at 11:35
Rainfall This month 40.0 mm (1.57 in.) Rainfall To date this year 469.0 mm (18.46 in.)
Maximum rain per minute (last hour)0.0 mm/min Maximum rain per hour (last 6 hours)0.0 mm/hour
Yesterdays rainfall 0.0 mm DewPoint 3.7°C (Wet Bulb :12.6°C )
Humidity 32 %, Humidex 19.9°C Barometer corrected to msl1011 hPa
Pressure change +1 hPa (last hour) Trend (last hour)RISING SLOWLY
Pressure change (last 12 hours)+3 hPa Pressure change (last 6 hours)+5 hPa
Current Indoor Temp. 24.4°C
Current Indoor Hum. 42%
Current 00:00 hours of sunshine today, current sky: Night time/Dry/Cloudy with clear patches
Sunshine hours for the year: 29:43 hrs Sunshine hours for the month: 12:29 hrs
Current evapotranspiration rate 4.5 mm per day. Yesterday's reading 7.7




Weather report/warning/Metars

Montreal / Pierre Elliot Trudeau International Airport, Que, Canada (CYUL) 45-28N 073-45W 36M
Jul 23, 2014 - 09:00 PM EDT / 2014.07.24 0100 UTC
Wind: from the N (350 degrees) at 12 MPH (10 KT):0
Visibility: 15 mile(s):0
Sky conditions: mostly cloudy
Temperature: 73 F (23 C)
Dew Point: 55 F (13 C)
Relative Humidity: 53%
Pressure (altimeter): 29.83 in. Hg (1010 hPa)
ob: CYUL 240100Z 35010KT 15SM BKN060 BKN090 23/13 A2983 RMK SC6AC1 SLP101 DENSITY ALT 1100FT
cycle: 1
Sherbrooke, Que., Canada (CYSC) 45-24N 071-53W
Jul 23, 2014 - 09:00 PM EDT / 2014.07.24 0100 UTC
Wind: from the WNW (300 degrees) at 7 MPH (6 KT):0
Visibility: 9 mile(s):0
Sky conditions: overcast
Temperature: 66 F (19 C)
Dew Point: 62 F (17 C)
Relative Humidity: 88%
Pressure (altimeter): 29.81 in. Hg (1009 hPa)
ob: CYSC 240100Z AUTO 30006KT 9SM OVC045 19/17 A2981 RMK SLP094 DENSITY ALT 1500FT
cycle: 1
St Jovite Automatic Weather Reporting System , Canada (CWJT) 46-04N 074-32W
Jul 23, 2014 - 09:00 PM EDT / 2014.07.24 0100 UTC
Wind: from the WNW (300 degrees) at 1 MPH (1 KT):0
Temperature: 59.9 F (15.5 C)
Dew Point: 51.6 F (10.9 C)
Relative Humidity: 74%
Pressure tendency: 0.04 inches (1.4 hPa) higher than three hours ago
ob: CWJT 240100Z AUTO 30001KT 16/11 RMK AO1 SLP111 T01550109 51014
cycle: 1
Ste Anne De Bell 1, Canada (CWVQ) 45-26N 073-56W
Jul 23, 2014 - 09:00 PM EDT / 2014.07.24 0100 UTC
Wind: from the NW (320 degrees) at 9 MPH (8 KT):0
Temperature: 69.6 F (20.9 C)
Dew Point: 57.4 F (14.1 C)
Relative Humidity: 65%
Pressure tendency: 0.07 inches (2.3 hPa) higher than three hours ago
ob: CWVQ 240100Z AUTO 32008KT 21/14 RMK AO1 SLP103 T02090141 51023
cycle: 1
Montreal / Mirabel, Canada (CYMX) 45-41N 074-02W
Jul 23, 2014 - 09:00 PM EDT / 2014.07.24 0100 UTC
Wind: from the WNW (300 degrees) at 5 MPH (4 KT):0
Visibility: 25 mile(s):0
Temperature: 66 F (19 C)
Dew Point: 55 F (13 C)
Relative Humidity: 68%
Pressure (altimeter): 29.86 in. Hg (1011 hPa)
ob: CYMX 240100Z 30004KT 25SM 19/13 A2986 RMK SLP113 DENSITY ALT 800FT
cycle: 1
L'Acadie, Canada (CWIZ) 45-18N 073-21W
Jul 23, 2014 - 09:00 PM EDT / 2014.07.24 0100 UTC
Wind: from the NNW (340 degrees) at 2 MPH (2 KT):0
Temperature: 70.5 F (21.4 C)
Dew Point: 59.7 F (15.4 C)
Relative Humidity: 68%
ob: CWIZ 240100Z AUTO 34002KT 21/15 RMK AO1 T02140154
cycle: 1
St Anicet, Canada (CWBZ) 45-07N 074-17W 49M
Jul 23, 2014 - 09:00 PM EDT / 2014.07.24 0100 UTC
Wind: from the WNW (300 degrees) at 6 MPH (5 KT):0
Temperature: 69.4 F (20.8 C)
Dew Point: 59.7 F (15.4 C)
Relative Humidity: 71%
Pressure tendency: 0.06 inches (1.9 hPa) higher than three hours ago
ob: CWBZ 240100Z AUTO 30005KT 21/15 RMK AO1 SLP107 T02080154 51019
cycle: 1
Mount Washington, NH, United States (KMWN) 44-16N 071-18W 1910M
Jul 23, 2014 - 09:48 PM EDT / 2014.07.24 0148 UTC
Wind: from the NW (310 degrees) at 30 MPH (26 KT):0
Visibility: less than 1 mile:0
Sky conditions: obscured
Weather: light rain showers; fog
Temperature: 51 F (11 C)
Dew Point: 51 F (11 C)
Relative Humidity: 100%
ob: KMWN 240148Z 31026KT 0SM -SHRA FG VV000 11/11 RMK 
cycle: 2
Vancouver International Air-Port, B. C., Canada (CYVR) 49-11N 123-10W 2M
Jul 23, 2014 - 09:00 PM EDT / 2014.07.24 0100 UTC
Wind: from the SSW (200 degrees) at 15 MPH (13 KT) gusting to 23 MPH (20 KT):0
Visibility: 15 mile(s):0
Sky conditions: overcast
Weather: light rain
Temperature: 60 F (16 C)
Dew Point: 57 F (14 C)
Relative Humidity: 87%
Pressure (altimeter): 29.96 in. Hg (1014 hPa)
ob: CYVR 240100Z 20013G20KT 15SM -RA FEW008 FEW025 SCT047 BKN067 OVC080 16/14 A2996 RMK SF1SC1SC2AC3AC1 PCPN VRY LGT SLP145 DENSITY ALT 100FT
cycle: 1



The data is logged at two minute intervals, but there is data recorded every minute.

Use the RELOAD facility on your browser to retrieve the latest data.

Click here for a daily update of the averages/extremes to date for the month

Click here for Real Time Weather



Created by "Weather Display" software version 10.37R Build 51 at this start time/date 20:39 2014-07-03